Time;durP1;ratioP1;P1;durP2;ratioP2;P2;SDS_P1;SDS_P2;PMS_P1;PMS_P2;Temp;Humidity;BMP_temperature;BMP_pressure;BME280_temperature;BME280_humidity;BME280_pressure;Samples;Min_cycle;Max_cycle;Signal;HPM_P1;HPM_P2
2023/06/22 00:01:56;;;;;;;19.40;17.70;;;;;;;19.26;88.43;100492.64;102530;267;96879;-56
2023/06/22 00:04:33;;;;;;;21.40;19.20;;;;;;;19.24;88.48;100487.01;102664;277;97486;-55
2023/06/22 00:07:09;;;;;;;19.90;18.10;;;;;;;19.16;88.60;100482.19;102646;277;119203;-55
2023/06/22 00:09:47;;;;;;;20.90;18.70;;;;;;;19.15;88.51;100490.15;102620;278;105605;-55
2023/06/22 00:12:28;;;;;;;20.30;18.40;;;;;;;19.13;88.53;100490.73;102618;277;114523;-55
2023/06/22 00:15:08;;;;;;;20.60;18.70;;;;;;;19.11;88.54;100489.64;102697;277;95831;-55
2023/06/22 00:17:52;;;;;;;20.10;18.30;;;;;;;19.07;88.81;100487.45;102718;277;96407;-57
2023/06/22 00:20:30;;;;;;;19.50;17.70;;;;;;;19.08;88.72;100488.98;102574;277;120116;-58
2023/06/22 00:23:15;;;;;;;20.30;18.40;;;;;;;19.06;88.60;100491.86;102612;278;105040;-58
2023/06/22 00:25:53;;;;;;;20.40;18.30;;;;;;;19.01;88.69;100484.67;102556;277;114020;-58
2023/06/22 00:28:28;;;;;;;18.50;16.90;;;;;;;18.95;88.85;100483.74;102600;277;93276;-59
2023/06/22 00:31:08;;;;;;;19.50;17.70;;;;;;;18.94;89.15;100484.79;102578;278;98856;-59
2023/06/22 00:33:46;;;;;;;19.20;17.50;;;;;;;18.92;89.08;100479.93;102558;277;118642;-55
2023/06/22 00:36:27;;;;;;;20.30;18.40;;;;;;;18.90;89.03;100479.41;102533;277;105075;-55
2023/06/22 00:39:07;;;;;;;20.40;18.50;;;;;;;18.87;89.02;100481.42;102605;266;114274;-59
2023/06/22 00:41:45;;;;;;;21.10;19.00;;;;;;;18.84;89.27;100482.63;102600;277;95427;-59
2023/06/22 00:44:26;;;;;;;20.60;18.60;;;;;;;18.83;89.21;100482.55;102587;277;97874;-55
2023/06/22 00:47:01;;;;;;;22.10;19.80;;;;;;;18.81;89.21;100479.00;102564;278;119678;-52
2023/06/22 00:49:38;;;;;;;21.20;19.30;;;;;;;18.80;89.23;100481.02;102574;277;103844;-54
2023/06/22 00:52:28;;;;;;;20.80;18.90;;;;;;;18.80;89.32;100479.40;102548;278;115312;-54
2023/06/22 00:55:07;;;;;;;20.00;17.90;;;;;;;18.79;89.50;100480.98;102558;277;95996;-55
2023/06/22 00:57:41;;;;;;;21.30;19.40;;;;;;;18.80;89.41;100476.96;102706;278;97532;-55
2023/06/22 01:00:19;;;;;;;19.70;17.90;;;;;;;18.81;89.53;100473.63;102662;278;118036;-55
2023/06/22 01:02:54;;;;;;;22.90;20.70;;;;;;;18.82;89.48;100467.73;102665;278;104275;-56
2023/06/22 01:05:30;;;;;;;20.80;18.90;;;;;;;18.80;89.61;100460.75;102646;278;113070;-55
2023/06/22 01:08:25;;;;;;;20.50;18.70;;;;;;;18.79;89.55;100458.20;102580;278;96861;-54
2023/06/22 01:11:08;;;;;;;20.60;18.50;;;;;;;18.79;89.61;100454.04;102606;278;97473;-55
2023/06/22 01:14:01;;;;;;;20.00;18.20;;;;;;;18.77;89.68;100454.98;102602;277;118433;-55
2023/06/22 01:16:43;;;;;;;20.50;18.70;;;;;;;18.76;89.85;100454.86;102590;277;104969;-55
2023/06/22 01:19:41;;;;;;;21.10;19.20;;;;;;;18.76;89.85;100454.36;102560;277;113661;-56
2023/06/22 01:22:22;;;;;;;20.80;18.80;;;;;;;18.73;89.96;100455.06;102559;278;95693;-57
2023/06/22 01:25:12;;;;;;;21.00;19.00;;;;;;;18.68;89.73;100455.05;102536;277;97406;-57
2023/06/22 01:28:07;;;;;;;19.80;18.00;;;;;;;18.69;89.82;100450.21;102575;277;118364;-54
2023/06/22 01:30:44;;;;;;;22.00;20.10;;;;;;;18.65;89.96;100440.05;102492;277;105252;-55
2023/06/22 01:33:19;;;;;;;19.70;17.90;;;;;;;18.65;90.11;100441.86;102610;277;114484;-59
2023/06/22 01:35:56;;;;;;;21.10;19.10;;;;;;;18.65;90.14;100445.41;102566;277;96884;-59
2023/06/22 01:38:35;;;;;;;21.70;19.70;;;;;;;18.64;90.22;100448.52;102605;277;97566;-54
2023/06/22 01:41:16;;;;;;;21.80;19.80;;;;;;;18.64;90.26;100449.39;102628;278;117125;-55
2023/06/22 01:43:58;;;;;;;22.10;20.10;;;;;;;18.64;90.32;100453.62;102587;278;104215;-59
2023/06/22 01:46:35;;;;;;;21.50;19.60;;;;;;;18.64;90.36;100458.60;102684;278;113853;-59
2023/06/22 01:49:11;;;;;;;23.50;21.30;;;;;;;18.64;90.32;100461.05;102716;278;94020;-59
2023/06/22 01:51:46;;;;;;;22.20;20.30;;;;;;;18.62;90.39;100458.71;102694;266;96112;-59
2023/06/22 01:54:23;;;;;;;22.10;20.00;;;;;;;18.63;90.41;100459.71;102694;278;120428;-55
2023/06/22 01:57:03;;;;;;;23.40;20.80;;;;;;;18.61;90.46;100464.38;102733;278;105245;-58
2023/06/22 01:59:51;;;;;;;20.60;18.70;;;;;;;18.59;90.38;100470.35;102609;278;113690;-58
2023/06/22 02:02:37;;;;;;;20.10;18.20;;;;;;;18.54;90.64;100482.56;102649;278;96212;-56
2023/06/22 02:05:18;;;;;;;20.70;18.80;;;;;;;18.53;90.54;100484.86;102514;278;100591;-56
2023/06/22 02:08:01;;;;;;;23.00;21.00;;;;;;;18.53;90.61;100491.02;102673;278;119059;-55
2023/06/22 02:10:40;;;;;;;24.40;22.10;;;;;;;18.55;90.76;100497.12;102578;266;104732;-55
2023/06/22 02:13:19;;;;;;;26.70;24.10;;;;;;;18.56;90.98;100500.38;102627;278;113677;-56
2023/06/22 02:15:55;;;;;;;25.40;23.20;;;;;;;18.61;91.03;100493.92;102588;278;97497;-55
2023/06/22 02:18:31;;;;;;;26.60;24.10;;;;;;;18.68;90.98;100496.11;102670;278;96712;-59
2023/06/22 02:21:14;;;;;;;28.20;25.50;;;;;;;18.70;91.26;100496.33;102635;278;119881;-58
2023/06/22 02:23:57;;;;;;;26.70;24.20;;;;;;;18.74;91.36;100500.47;102702;278;104735;-59
2023/06/22 02:26:42;;;;;;;30.30;27.30;;;;;;;18.77;91.38;100504.86;102668;278;114662;-59
2023/06/22 02:29:31;;;;;;;30.00;27.00;;;;;;;18.85;91.59;100506.67;102697;278;95420;-55
2023/06/22 02:32:10;;;;;;;30.40;27.60;;;;;;;18.96;91.58;100510.40;102715;278;98521;-58
2023/06/22 02:34:47;;;;;;;31.80;28.70;;;;;;;19.03;91.66;100509.31;102631;278;119191;-59
2023/06/22 02:37:25;;;;;;;32.20;29.10;;;;;;;19.09;91.80;100521.41;102714;278;104248;-58
2023/06/22 02:40:04;;;;;;;34.20;30.90;;;;;;;19.17;91.70;100524.27;102631;278;114468;-59
2023/06/22 02:42:40;;;;;;;33.60;30.50;;;;;;;19.25;91.90;100529.71;102690;278;96729;-55
2023/06/22 02:45:15;;;;;;;34.70;31.20;;;;;;;19.30;92.08;100530.91;102673;278;95359;-55
2023/06/22 02:47:51;;;;;;;35.60;32.10;;;;;;;19.39;92.19;100530.83;102623;278;118633;-54
2023/06/22 02:50:32;;;;;;;37.00;33.20;;;;;;;19.46;92.13;100535.36;102595;278;104315;-55
2023/06/22 02:53:14;;;;;;;37.80;33.90;;;;;;;19.52;92.27;100543.36;102641;278;114150;-57
2023/06/22 02:55:55;;;;;;;38.00;34.10;;;;;;;19.58;92.33;100547.66;102606;278;96924;-58
2023/06/22 02:58:33;;;;;;;38.40;34.30;;;;;;;19.63;92.52;100547.05;102651;278;98029;-58
2023/06/22 03:01:07;;;;;;;41.00;36.70;;;;;;;19.70;92.44;100547.77;102620;278;118845;-59
2023/06/22 03:03:45;;;;;;;38.10;34.20;;;;;;;19.77;92.25;100540.52;102647;278;105351;-58
2023/06/22 03:06:28;;;;;;;39.60;35.70;;;;;;;19.83;92.23;100549.42;102622;278;114143;-58
2023/06/22 03:09:08;;;;;;;41.60;37.40;;;;;;;19.88;92.24;100553.67;102667;278;95968;-57
2023/06/22 03:11:49;;;;;;;40.40;36.40;;;;;;;19.91;92.39;100552.18;102656;278;95752;-58
2023/06/22 03:14:27;;;;;;;38.50;34.70;;;;;;;19.97;92.25;100557.45;102691;278;119987;-55
2023/06/22 03:17:03;;;;;;;39.60;35.80;;;;;;;20.03;92.35;100560.35;102706;278;103185;-56
2023/06/22 03:19:45;;;;;;;38.00;34.00;;;;;;;20.08;92.14;100561.20;102693;278;114853;-56
2023/06/22 03:22:21;;;;;;;37.70;33.90;;;;;;;20.11;91.95;100560.16;102713;278;95001;-56
2023/06/22 03:25:02;;;;;;;38.80;34.90;;;;;;;20.12;92.02;100560.67;102691;278;96636;-56
2023/06/22 03:27:39;;;;;;;39.60;35.60;;;;;;;20.12;91.88;100562.44;102665;278;119215;-59
2023/06/22 03:30:16;;;;;;;39.00;34.90;;;;;;;20.14;91.75;100558.58;102679;278;104282;-59
2023/06/22 03:32:51;;;;;;;37.10;33.50;;;;;;;20.18;91.73;100563.52;102675;278;112946;-60
2023/06/22 03:35:36;;;;;;;38.00;34.30;;;;;;;20.19;91.72;100566.27;102620;277;96990;-59
2023/06/22 03:38:16;;;;;;;37.40;33.70;;;;;;;20.24;91.75;100570.77;102638;278;100462;-59
2023/06/22 03:40:58;;;;;;;36.00;32.30;;;;;;;20.24;91.71;100575.84;102620;278;118284;-59
2023/06/22 03:43:39;;;;;;;36.90;33.40;;;;;;;20.27;91.75;100582.20;102644;278;104405;-56
2023/06/22 03:46:21;;;;;;;36.10;32.50;;;;;;;20.31;91.84;100581.55;102573;278;114318;-58
2023/06/22 03:49:04;;;;;;;36.40;33.00;;;;;;;20.36;91.72;100582.59;102608;278;97096;-59
2023/06/22 03:51:47;;;;;;;37.90;34.20;;;;;;;20.47;91.74;100586.20;102614;278;97847;-59
2023/06/22 03:54:24;;;;;;;35.30;32.00;;;;;;;20.63;91.63;100588.84;102613;278;119827;-55
2023/06/22 03:57:07;;;;;;;35.90;32.30;;;;;;;20.76;91.30;100588.70;102626;278;104468;-56
2023/06/22 03:59:45;;;;;;;33.90;30.80;;;;;;;20.99;91.37;100591.70;102544;278;113262;-55
2023/06/22 04:02:19;;;;;;;33.90;30.50;;;;;;;21.63;91.32;100588.01;102645;277;97341;-60
2023/06/22 04:04:57;;;;;;;35.60;32.30;;;;;;;22.15;90.26;100589.04;102674;278;97243;-60
2023/06/22 04:07:33;;;;;;;35.90;32.40;;;;;;;22.39;90.01;100592.06;102686;278;117899;-56
2023/06/22 04:10:09;;;;;;;35.50;32.20;;;;;;;22.91;89.26;100592.38;102611;278;105552;-55
2023/06/22 04:12:49;;;;;;;32.70;29.60;;;;;;;23.64;88.36;100591.95;102621;266;114136;-57
2023/06/22 04:15:25;;;;;;;32.20;28.90;;;;;;;24.28;86.99;100589.27;102593;278;96158;-58
2023/06/22 04:18:06;;;;;;;32.20;29.30;;;;;;;24.66;85.91;100596.08;102639;278;96846;-59
2023/06/22 04:20:40;;;;;;;31.20;28.40;;;;;;;24.80;84.76;100594.59;102631;278;119305;-57
2023/06/22 04:23:21;;;;;;;32.60;29.50;;;;;;;24.53;83.76;100598.62;102654;278;105629;-57
2023/06/22 04:25:57;;;;;;;33.20;30.20;;;;;;;24.30;83.36;100604.79;102576;278;114272;-57
2023/06/22 04:28:34;;;;;;;30.80;27.90;;;;;;;24.13;83.13;100611.60;102612;277;93174;-59
2023/06/22 04:31:17;;;;;;;30.40;27.50;;;;;;;23.81;83.20;100617.73;102632;278;96787;-59
2023/06/22 04:33:51;;;;;;;30.40;27.50;;;;;;;23.60;83.04;100614.08;102589;278;120067;-56
2023/06/22 04:36:30;;;;;;;30.50;27.60;;;;;;;23.38;83.17;100612.23;102584;278;104827;-56
2023/06/22 04:39:09;;;;;;;29.00;26.20;;;;;;;23.26;83.08;100618.34;102564;278;113920;-58
2023/06/22 04:41:51;;;;;;;28.20;25.50;;;;;;;23.20;82.97;100616.60;102523;278;96750;-56
2023/06/22 04:44:33;;;;;;;26.20;23.70;;;;;;;23.23;83.06;100610.67;102626;278;98099;-55
2023/06/22 04:47:09;;;;;;;28.00;25.40;;;;;;;23.15;83.29;100609.46;102576;278;118763;-57
2023/06/22 04:49:44;;;;;;;29.30;26.80;;;;;;;23.05;83.26;100610.39;102619;278;105264;-58
2023/06/22 04:52:20;;;;;;;28.50;25.60;;;;;;;22.95;83.18;100605.75;102653;277;114372;-56
2023/06/22 04:54:59;;;;;;;27.40;24.80;;;;;;;22.83;83.47;100609.08;102648;278;96089;-55
2023/06/22 04:57:48;;;;;;;25.40;23.10;;;;;;;22.76;83.67;100614.16;102635;277;98108;-58
2023/06/22 05:00:28;;;;;;;27.00;23.60;;;;;;;22.66;83.98;100610.38;102628;278;118437;-59
2023/06/22 05:03:10;;;;;;;25.40;22.90;;;;;;;22.55;84.12;100608.27;102578;277;105924;-55
2023/06/22 05:05:49;;;;;;;25.20;22.70;;;;;;;22.51;84.53;100607.27;102575;278;114485;-55
2023/06/22 05:08:34;;;;;;;26.30;23.80;;;;;;;22.47;84.67;100606.77;102512;279;96386;-55
2023/06/22 05:11:16;;;;;;;24.70;22.30;;;;;;;22.43;84.78;100607.02;102578;278;98285;-54
2023/06/22 05:13:54;;;;;;;24.40;22.10;;;;;;;22.48;84.92;100613.67;102560;278;119178;-58
2023/06/22 05:16:29;;;;;;;24.40;21.90;;;;;;;22.57;84.85;100613.48;102552;278;105500;-58
2023/06/22 05:19:04;;;;;;;23.80;21.40;;;;;;;22.70;85.05;100611.58;102512;278;113710;-54
2023/06/22 05:21:46;;;;;;;25.20;22.70;;;;;;;22.81;84.79;100611.60;102591;278;96141;-55
2023/06/22 05:24:31;;;;;;;22.40;20.40;;;;;;;23.00;84.82;100615.37;102600;278;97403;-60
2023/06/22 05:27:09;;;;;;;22.60;20.20;;;;;;;23.19;84.95;100611.91;102594;278;119450;-59
2023/06/22 05:29:54;;;;;;;21.60;19.60;;;;;;;23.31;84.67;100614.67;102572;278;105887;-58
2023/06/22 05:32:30;;;;;;;21.10;19.00;;;;;;;23.50;84.38;100621.02;102580;278;114441;-60
2023/06/22 05:35:07;;;;;;;22.50;20.30;;;;;;;23.63;84.46;100622.31;102595;277;94816;-59
2023/06/22 05:37:48;;;;;;;22.40;20.50;;;;;;;23.88;83.86;100630.62;102638;278;96786;-57
2023/06/22 05:40:33;;;;;;;22.40;20.40;;;;;;;23.80;83.54;100631.14;102608;277;118754;-58
2023/06/22 05:43:12;;;;;;;21.30;19.30;;;;;;;23.65;83.31;100633.69;102650;278;106119;-60
2023/06/22 05:45:53;;;;;;;21.40;19.30;;;;;;;23.65;83.03;100636.77;102621;278;114404;-59
2023/06/22 05:48:32;;;;;;;20.90;19.00;;;;;;;23.63;83.03;100641.00;102557;278;96951;-56
2023/06/22 05:51:21;;;;;;;20.60;18.60;;;;;;;23.62;82.89;100646.13;102644;278;97121;-56
2023/06/22 05:54:03;;;;;;;20.70;18.70;;;;;;;23.54;83.14;100643.06;102670;278;118927;-59
2023/06/22 05:56:48;;;;;;;20.10;18.30;;;;;;;23.58;83.12;100634.64;102645;278;105753;-58
2023/06/22 05:59:32;;;;;;;21.20;18.40;;;;;;;23.66;83.12;100629.55;102621;278;115119;-60
2023/06/22 06:02:10;;;;;;;17.40;15.80;;;;;;;23.91;82.93;100625.77;102635;278;97352;-57
2023/06/22 06:04:54;;;;;;;18.60;16.70;;;;;;;24.11;82.73;100629.05;102664;278;98320;-56
2023/06/22 06:07:37;;;;;;;18.50;16.70;;;;;;;24.24;82.51;100641.95;102673;278;119283;-60
2023/06/22 06:10:14;;;;;;;18.30;16.50;;;;;;;24.62;82.56;100647.73;102637;278;105947;-60
2023/06/22 06:12:50;;;;;;;16.70;15.00;;;;;;;24.76;81.54;100651.61;102701;278;114985;-56
2023/06/22 06:15:25;;;;;;;17.90;16.10;;;;;;;24.86;81.25;100652.73;102672;266;93149;-57
2023/06/22 06:18:06;;;;;;;17.20;15.60;;;;;;;24.92;80.55;100653.95;102710;278;96435;-61
2023/06/22 06:20:52;;;;;;;17.50;15.40;;;;;;;25.07;80.55;100649.90;102582;278;117758;-57
2023/06/22 06:23:30;;;;;;;15.80;14.40;;;;;;;25.67;80.59;100653.23;102748;278;105384;-56
2023/06/22 06:26:11;;;;;;;15.30;13.60;;;;;;;27.70;80.00;100648.21;102666;278;113676;-57
2023/06/22 06:28:50;;;;;;;14.40;12.90;;;;;;;28.19;76.45;100644.80;102364;278;451657;-57
2023/06/22 06:31:37;;;;;;;14.60;13.30;;;;;;;27.94;75.45;100646.99;102619;278;97377;-55
2023/06/22 06:34:20;;;;;;;14.30;12.80;;;;;;;27.71;74.18;100651.80;102714;278;118958;-59
2023/06/22 06:36:58;;;;;;;13.60;12.40;;;;;;;28.01;73.77;100646.96;102691;278;105253;-55
2023/06/22 06:39:38;;;;;;;12.80;11.60;;;;;;;29.07;73.33;100642.30;102616;278;114076;-54
2023/06/22 06:42:19;;;;;;;12.80;11.60;;;;;;;30.16;70.46;100637.17;102645;278;93990;-60
2023/06/22 06:44:58;;;;;;;12.20;11.00;;;;;;;29.42;68.86;100641.34;102630;278;96600;-60
2023/06/22 06:47:40;;;;;;;11.70;10.70;;;;;;;28.82;68.99;100635.98;102719;278;118901;-56
2023/06/22 06:50:16;;;;;;;11.70;10.60;;;;;;;28.30;68.72;100637.62;102669;278;105459;-56
2023/06/22 06:52:54;;;;;;;13.00;11.70;;;;;;;27.84;68.80;100642.75;102520;278;115156;-56
2023/06/22 06:55:32;;;;;;;11.10;10.00;;;;;;;28.70;69.60;100638.79;102665;278;94964;-57
2023/06/22 06:58:16;;;;;;;11.30;10.20;;;;;;;30.76;67.42;100637.73;102549;279;98031;-55
2023/06/22 07:00:58;;;;;;;;;;;;;;;32.33;64.06;100644.27;102607;278;120037;-54
2023/06/22 07:03:41;;;;;;;14.90;9.00;;;;;;;32.67;61.54;100639.21;102729;278;104267;-60
2023/06/22 07:06:17;;;;;;;9.80;8.80;;;;;;;32.86;60.28;100635.38;102659;278;114517;-60
2023/06/22 07:08:54;;;;;;;8.90;8.00;;;;;;;32.50;59.28;100634.61;102710;278;94434;-60
2023/06/22 07:11:36;;;;;;;8.10;7.30;;;;;;;32.40;59.32;100638.74;102653;278;97551;-57
2023/06/22 07:14:14;;;;;;;7.70;7.00;;;;;;;32.98;59.22;100636.21;102668;277;119802;-59
2023/06/22 07:16:57;;;;;;;7.60;6.80;;;;;;;34.27;57.52;100639.52;102659;277;105813;-59
2023/06/22 07:19:37;;;;;;;7.60;6.70;;;;;;;35.30;55.03;100642.44;102642;278;114910;-59
2023/06/22 07:22:19;;;;;;;6.60;6.10;;;;;;;35.63;52.96;100648.06;102619;278;94388;-58
2023/06/22 07:24:56;;;;;;;7.20;6.40;;;;;;;35.32;51.29;100647.85;102522;278;98023;-58
2023/06/22 07:27:37;;;;;;;7.00;5.60;;;;;;;35.25;51.60;100650.35;102650;278;120248;-58
2023/06/22 07:30:15;;;;;;;16.90;5.80;;;;;;;36.00;50.44;100653.39;102657;278;106079;-57
2023/06/22 07:32:55;;;;;;;5.60;5.10;;;;;;;36.68;48.63;100655.67;102624;278;114791;-58
2023/06/22 07:35:30;;;;;;;5.00;4.50;;;;;;;37.33;47.76;100654.55;102642;278;94455;-56
2023/06/22 07:38:09;;;;;;;4.70;4.20;;;;;;;37.78;46.24;100652.83;102667;278;96576;-61
2023/06/22 07:40:45;;;;;;;5.50;4.90;;;;;;;37.85;44.78;100652.42;102591;278;118490;-60
2023/06/22 07:43:21;;;;;;;7.70;5.90;;;;;;;37.96;44.05;100655.38;102612;277;104417;-62
2023/06/22 07:46:02;;;;;;;4.90;4.40;;;;;;;38.49;43.15;100656.94;102573;278;114968;-60
2023/06/22 07:48:41;;;;;;;4.40;4.00;;;;;;;38.16;41.47;100650.36;102624;277;93490;-58
2023/06/22 07:51:20;;;;;;;5.00;4.00;;;;;;;38.38;40.83;100652.33;102625;278;96674;-57
2023/06/22 07:54:02;;;;;;;5.30;4.60;;;;;;;38.79;40.62;100657.14;102617;278;117613;-54
2023/06/22 07:56:41;;;;;;;5.50;4.80;;;;;;;38.50;39.35;100655.02;102621;278;105892;-57
2023/06/22 07:59:22;;;;;;;4.70;4.10;;;;;;;38.49;39.89;100653.38;102591;277;112765;-60
2023/06/22 08:02:00;;;;;;;4.70;4.30;;;;;;;38.69;39.36;100655.84;102587;278;93676;-57
2023/06/22 08:04:42;;;;;;;5.60;4.30;;;;;;;38.84;38.78;100654.17;102596;278;97266;-57
2023/06/22 08:07:19;;;;;;;4.40;4.00;;;;;;;38.94;37.64;100650.97;102621;278;117978;-55
2023/06/22 08:09:54;;;;;;;3.70;3.40;;;;;;;38.78;37.22;100650.72;102579;278;105716;-60
2023/06/22 08:12:31;;;;;;;5.30;4.10;;;;;;;38.63;37.17;100649.34;102584;278;113498;-62
2023/06/22 08:15:10;;;;;;;4.30;3.90;;;;;;;38.81;36.69;100643.61;102532;278;94277;-58
2023/06/22 08:17:46;;;;;;;5.30;3.80;;;;;;;39.10;36.46;100649.50;102604;278;98212;-59
2023/06/22 08:20:25;;;;;;;5.90;3.90;;;;;;;39.37;36.38;100646.46;102583;278;119089;-60
2023/06/22 08:23:05;;;;;;;4.60;3.90;;;;;;;39.27;35.07;100650.38;102586;278;104575;-55
2023/06/22 08:25:43;;;;;;;6.00;3.70;;;;;;;39.26;35.17;100643.59;102550;278;115408;-56
2023/06/22 08:28:20;;;;;;;4.80;3.50;;;;;;;39.57;35.53;100646.81;102632;278;93375;-56
2023/06/22 08:30:55;;;;;;;3.80;3.40;;;;;;;39.71;34.54;100649.65;102621;278;96689;-56
2023/06/22 08:33:38;;;;;;;5.20;3.50;;;;;;;39.10;33.35;100653.22;102658;278;120299;-59
2023/06/22 08:36:14;;;;;;;4.60;3.40;;;;;;;39.10;33.60;100654.73;102610;278;105309;-61
2023/06/22 08:39:02;;;;;;;3.10;2.90;;;;;;;39.10;33.75;100650.92;102608;277;113475;-56
2023/06/22 08:41:42;;;;;;;4.00;3.40;;;;;;;39.33;34.06;100651.95;102559;278;94436;-56
2023/06/22 08:44:23;;;;;;;4.70;3.30;;;;;;;39.31;33.54;100651.53;102574;278;95792;-56
2023/06/22 08:47:00;;;;;;;4.00;3.20;;;;;;;39.26;33.17;100652.73;102635;278;118612;-55
2023/06/22 08:49:36;;;;;;;5.50;3.30;;;;;;;39.39;32.85;100655.71;102616;277;104425;-55
2023/06/22 08:52:12;;;;;;;3.00;2.80;;;;;;;39.36;32.47;100657.61;102563;277;114521;-56
2023/06/22 08:54:49;;;;;;;3.80;2.70;;;;;;;39.25;32.25;100663.29;102582;277;92690;-56
2023/06/22 08:57:32;;;;;;;3.10;2.70;;;;;;;38.99;32.62;100669.78;102642;277;97456;-59
2023/06/22 09:00:16;;;;;;;4.20;2.70;;;;;;;38.29;32.02;100670.18;102623;277;120849;-59
2023/06/22 09:02:51;;;;;;;4.00;2.50;;;;;;;37.56;32.55;100666.46;102582;277;103441;-59
2023/06/22 09:05:25;;;;;;;3.20;2.80;;;;;;;36.95;32.85;100671.13;102670;277;115528;-57
2023/06/22 09:08:06;;;;;;;4.60;2.90;;;;;;;36.54;33.41;100683.02;102582;266;93545;-55
2023/06/22 09:10:44;;;;;;;4.50;3.20;;;;;;;36.13;33.27;100679.35;102642;278;98196;-54
2023/06/22 09:13:22;;;;;;;4.40;3.10;;;;;;;35.60;33.68;100674.23;102619;278;119345;-56
2023/06/22 09:16:00;;;;;;;5.40;3.10;;;;;;;35.03;33.99;100671.63;102587;278;105375;-56
2023/06/22 09:18:45;;;;;;;3.20;2.70;;;;;;;34.43;34.70;100669.59;102603;278;114382;-60
2023/06/22 09:21:25;;;;;;;3.80;2.70;;;;;;;34.12;35.28;100670.42;102556;278;94220;-59
2023/06/22 09:24:03;;;;;;;7.70;3.50;;;;;;;34.00;35.51;100661.74;102611;278;96136;-59
2023/06/22 09:26:39;;;;;;;3.80;3.00;;;;;;;33.58;35.27;100658.11;102587;278;119581;-57
2023/06/22 09:29:26;;;;;;;3.30;2.70;;;;;;;33.36;35.60;100657.84;102622;277;106069;-58
2023/06/22 09:32:06;;;;;;;5.50;2.90;;;;;;;33.58;36.48;100659.35;102585;277;113527;-58
2023/06/22 09:34:42;;;;;;;5.20;3.80;;;;;;;33.73;37.36;100662.73;102564;277;93518;-58
2023/06/22 09:37:21;;;;;;;5.30;3.20;;;;;;;33.75;37.03;100657.77;102608;277;96899;-57
2023/06/22 09:39:59;;;;;;;3.70;2.90;;;;;;;33.69;37.19;100651.91;102618;277;118845;-56
2023/06/22 09:42:35;;;;;;;3.50;3.20;;;;;;;33.65;37.42;100648.05;102569;278;106106;-58
2023/06/22 09:45:12;;;;;;;5.10;3.10;;;;;;;33.65;37.69;100648.95;102556;278;114654;-60
2023/06/22 09:47:47;;;;;;;5.20;3.30;;;;;;;33.47;37.41;100647.36;102587;278;94913;-55
2023/06/22 09:50:29;;;;;;;4.60;3.60;;;;;;;33.11;37.38;100646.13;102667;278;97717;-55
2023/06/22 09:53:17;;;;;;;5.30;3.80;;;;;;;33.13;37.69;100648.84;102639;278;119673;-60
2023/06/22 09:55:57;;;;;;;4.80;3.80;;;;;;;33.07;38.44;100649.19;102607;278;106007;-60
2023/06/22 09:58:35;;;;;;;4.10;3.50;;;;;;;32.89;38.54;100648.39;102539;279;113483;-57
2023/06/22 10:01:15;;;;;;;5.90;3.80;;;;;;;32.97;39.24;100647.71;102494;278;94818;-57
2023/06/22 10:03:54;;;;;;;5.10;3.70;;;;;;;32.61;38.29;100647.56;102695;278;98408;-61
2023/06/22 10:06:31;;;;;;;3.80;3.40;;;;;;;32.41;38.69;100645.73;102594;278;119355;-60
2023/06/22 10:09:05;;;;;;;4.60;3.40;;;;;;;32.34;39.23;100651.19;102660;278;105773;-59
2023/06/22 10:11:40;;;;;;;4.60;3.60;;;;;;;32.56;39.71;100648.98;102616;278;114151;-56
2023/06/22 10:14:24;;;;;;;6.30;3.60;;;;;;;32.81;38.99;100649.19;102640;277;92856;-57
2023/06/22 10:17:07;;;;;;;3.50;3.20;;;;;;;32.66;38.55;100656.54;102729;278;97549;-57
2023/06/22 10:19:45;;;;;;;5.00;3.20;;;;;;;32.32;38.43;100657.54;102591;278;119963;-57
2023/06/22 10:22:22;;;;;;;4.10;3.30;;;;;;;32.40;39.10;100660.67;102608;278;105630;-58
2023/06/22 10:24:59;;;;;;;6.30;3.50;;;;;;;32.28;38.26;100663.41;102580;277;114058;-58
2023/06/22 10:27:43;;;;;;;9.00;3.30;;;;;;;31.68;38.36;100660.85;102677;277;93299;-55
2023/06/22 10:30:21;;;;;;;4.40;4.00;;;;;;;31.72;38.87;100659.86;102529;278;96386;-57
2023/06/22 10:32:57;;;;;;;6.40;3.60;;;;;;;31.79;39.13;100650.40;102624;278;119360;-52
2023/06/22 10:35:37;;;;;;;5.20;3.90;;;;;;;32.04;39.81;100649.17;102555;278;106008;-55
2023/06/22 10:38:12;;;;;;;5.00;4.00;;;;;;;32.12;39.90;100641.59;102620;278;113286;-55
2023/06/22 10:40:52;;;;;;;4.10;3.70;;;;;;;31.79;39.63;100643.86;102524;278;95044;-56
2023/06/22 10:43:35;;;;;;;5.10;3.80;;;;;;;31.41;39.71;100645.21;102615;278;98088;-57
2023/06/22 10:46:13;;;;;;;6.90;3.80;;;;;;;31.51;40.07;100639.34;102586;278;119329;-58
2023/06/22 10:48:50;;;;;;;7.90;4.50;;;;;;;31.76;40.19;100635.82;102558;278;105568;-58
2023/06/22 10:51:32;;;;;;;5.20;3.60;;;;;;;32.00;40.21;100638.38;102510;278;114429;-57
2023/06/22 10:54:18;;;;;;;5.70;4.30;;;;;;;32.08;39.97;100634.61;102542;277;95038;-57
2023/06/22 10:57:00;;;;;;;4.90;3.70;;;;;;;31.85;39.68;100638.98;102563;279;97383;-55
2023/06/22 10:59:35;;;;;;;3.90;3.30;;;;;;;31.55;39.44;100637.92;102511;278;120465;-56
2023/06/22 11:02:18;;;;;;;4.20;3.80;;;;;;;31.46;39.85;100639.20;102583;278;105474;-60
2023/06/22 11:05:01;;;;;;;5.00;4.00;;;;;;;31.70;40.23;100632.49;102559;279;113238;-60
2023/06/22 11:07:36;;;;;;;6.70;3.80;;;;;;;32.01;40.40;100620.35;102578;278;95165;-59
2023/06/22 11:10:12;;;;;;;5.40;4.30;;;;;;;31.88;39.61;100621.06;102601;278;96915;-59
2023/06/22 11:12:50;;;;;;;4.20;3.80;;;;;;;31.78;39.93;100622.25;102600;278;118985;-58
2023/06/22 11:15:28;;;;;;;5.40;3.60;;;;;;;31.62;39.85;100626.26;102579;278;106376;-58
2023/06/22 11:18:09;;;;;;;5.30;4.10;;;;;;;31.82;40.36;100623.48;102606;278;113647;-55
2023/06/22 11:20:56;;;;;;;4.30;3.90;;;;;;;31.95;40.04;100621.89;102583;278;95067;-54
2023/06/22 11:23:32;;;;;;;5.30;3.90;;;;;;;31.90;39.75;100622.34;102648;278;96821;-56
2023/06/22 11:26:10;;;;;;;4.70;4.20;;;;;;;31.69;39.55;100622.86;102609;278;119863;-55
2023/06/22 11:28:51;;;;;;;4.40;3.80;;;;;;;31.69;39.48;100619.73;102586;278;106138;-55
2023/06/22 11:31:27;;;;;;;5.60;3.90;;;;;;;31.82;39.66;100619.99;102516;278;113679;-56
2023/06/22 11:34:44;;;;;;;5.10;3.80;;;;;;;32.01;39.72;100614.30;102517;279;93986;-55
2023/06/22 11:40:30;;;;;;;5.00;3.80;;;;;;;32.38;39.24;100617.88;104270;276;117329;-59
2023/06/22 11:43:06;;;;;;;4.90;4.00;;;;;;;32.37;38.75;100620.62;104320;277;104948;-55
2023/06/22 11:45:43;;;;;;;5.90;4.30;;;;;;;32.28;38.64;100619.11;104310;277;114488;-55
2023/06/22 11:48:18;;;;;;;4.70;4.20;;;;;;;32.31;38.83;100618.90;104324;277;94253;-56
2023/06/22 11:50:54;;;;;;;4.70;3.70;;;;;;;32.29;38.72;100620.59;104345;277;96860;-58
2023/06/22 11:53:30;;;;;;;4.00;3.60;;;;;;;32.18;38.55;100621.56;104315;277;119561;-58
2023/06/22 11:56:06;;;;;;;4.80;3.50;;;;;;;31.90;38.49;100629.23;104338;277;104792;-58
2023/06/22 11:58:40;;;;;;;5.90;4.10;;;;;;;31.78;38.49;100627.11;104285;277;113085;-58
2023/06/22 12:01:15;;;;;;;4.20;3.50;;;;;;;31.81;38.71;100625.42;104318;277;94242;-58
2023/06/22 12:03:49;;;;;;;5.10;3.90;;;;;;;31.83;38.42;100621.66;104320;277;96998;-58
2023/06/22 12:06:23;;;;;;;4.40;3.70;;;;;;;31.80;38.31;100623.92;104309;277;118434;-56
2023/06/22 12:08:57;;;;;;;4.60;3.60;;;;;;;31.80;38.02;100617.98;104335;277;105350;-56
2023/06/22 12:11:32;;;;;;;6.40;4.20;;;;;;;31.84;38.05;100610.17;104324;277;115688;-56